sensor_id;sensor_type;location;lat;lon;timestamp;pressure;altitude;pressure_sealevel;temperature;humidity
75549;BME280;64133;56.002;37.208;2022-12-07T00:04:43;100126.17;;;-8.30;55.94
75549;BME280;64133;56.002;37.208;2022-12-07T00:09:48;100118.48;;;-8.33;55.82
75549;BME280;64133;56.002;37.208;2022-12-07T00:14:53;100129.55;;;-8.33;55.71
75549;BME280;64133;56.002;37.208;2022-12-07T00:19:57;100125.69;;;-8.36;55.83
75549;BME280;64133;56.002;37.208;2022-12-07T00:25:01;100125.72;;;-8.35;55.74
75549;BME280;64133;56.002;37.208;2022-12-07T00:30:08;100128.28;;;-8.38;55.74
75549;BME280;64133;56.002;37.208;2022-12-07T00:35:13;100129.13;;;-8.39;55.60
75549;BME280;64133;56.002;37.208;2022-12-07T00:40:19;100132.53;;;-8.40;55.78
75549;BME280;64133;56.002;37.208;2022-12-07T00:45:22;100138.01;;;-8.45;55.98
75549;BME280;64133;56.002;37.208;2022-12-07T00:50:27;100131.63;;;-8.48;56.01
75549;BME280;64133;56.002;37.208;2022-12-07T00:55:34;100131.59;;;-8.51;56.06
75549;BME280;64133;56.002;37.208;2022-12-07T01:05:53;100128.58;;;-8.55;56.36
75549;BME280;64133;56.002;37.208;2022-12-07T01:11:01;100126.81;;;-8.64;56.53
75549;BME280;64133;56.002;37.208;2022-12-07T01:16:06;100135.36;;;-8.60;56.52
75549;BME280;64133;56.002;37.208;2022-12-07T01:21:12;100131.92;;;-8.62;56.47
75549;BME280;64133;56.002;37.208;2022-12-07T01:26:16;100139.97;;;-8.70;56.64
75549;BME280;64133;56.002;37.208;2022-12-07T01:31:21;100135.67;;;-8.71;56.70
75549;BME280;64133;56.002;37.208;2022-12-07T01:36:26;100136.48;;;-8.78;56.70
75549;BME280;64133;56.002;37.208;2022-12-07T01:41:30;100125.81;;;-8.82;56.81
75549;BME280;64133;56.002;37.208;2022-12-07T01:46:34;100132.16;;;-8.86;56.81
75549;BME280;64133;56.002;37.208;2022-12-07T01:51:39;100126.94;;;-8.98;56.98
75549;BME280;64133;56.002;37.208;2022-12-07T01:56:45;100128.60;;;-9.01;57.24
75549;BME280;64133;56.002;37.208;2022-12-07T02:01:49;100126.81;;;-9.13;57.37
75549;BME280;64133;56.002;37.208;2022-12-07T02:06:54;100121.80;;;-9.04;57.39
75549;BME280;64133;56.002;37.208;2022-12-07T02:11:58;100121.71;;;-9.13;57.37
75549;BME280;64133;56.002;37.208;2022-12-07T02:17:08;100108.48;;;-9.16;57.34
75549;BME280;64133;56.002;37.208;2022-12-07T02:22:18;100115.30;;;-9.16;57.32
75549;BME280;64133;56.002;37.208;2022-12-07T02:33:00;100105.00;;;-9.24;57.49
75549;BME280;64133;56.002;37.208;2022-12-07T02:38:06;100109.12;;;-9.40;57.86
75549;BME280;64133;56.002;37.208;2022-12-07T02:43:09;100109.59;;;-9.34;57.86
75549;BME280;64133;56.002;37.208;2022-12-07T02:48:14;100106.58;;;-9.37;58.02
75549;BME280;64133;56.002;37.208;2022-12-07T02:53:32;100108.61;;;-9.47;58.01
75549;BME280;64133;56.002;37.208;2022-12-07T02:58:41;100108.98;;;-9.52;58.24
75549;BME280;64133;56.002;37.208;2022-12-07T03:03:46;100106.34;;;-9.58;58.46
75549;BME280;64133;56.002;37.208;2022-12-07T03:08:52;100097.84;;;-9.60;58.49
75549;BME280;64133;56.002;37.208;2022-12-07T03:13:58;100107.56;;;-9.64;58.59
75549;BME280;64133;56.002;37.208;2022-12-07T03:19:02;100103.26;;;-9.70;58.72
75549;BME280;64133;56.002;37.208;2022-12-07T03:24:08;100103.59;;;-9.76;58.94
75549;BME280;64133;56.002;37.208;2022-12-07T03:29:14;100097.21;;;-9.78;58.95
75549;BME280;64133;56.002;37.208;2022-12-07T03:34:19;100100.98;;;-9.82;58.98
75549;BME280;64133;56.002;37.208;2022-12-07T03:39:23;100104.38;;;-9.83;59.19
75549;BME280;64133;56.002;37.208;2022-12-07T03:44:26;100099.08;;;-9.97;59.38
75549;BME280;64133;56.002;37.208;2022-12-07T03:49:32;100095.79;;;-9.89;59.35
75549;BME280;64133;56.002;37.208;2022-12-07T03:54:36;100096.95;;;-9.98;59.33
75549;BME280;64133;56.002;37.208;2022-12-07T03:59:40;100089.31;;;-9.98;59.61
75549;BME280;64133;56.002;37.208;2022-12-07T04:04:45;100088.03;;;-9.99;59.73
75549;BME280;64133;56.002;37.208;2022-12-07T04:09:49;100089.67;;;-10.03;59.75
75549;BME280;64133;56.002;37.208;2022-12-07T04:14:54;100074.76;;;-10.08;59.96
75549;BME280;64133;56.002;37.208;2022-12-07T04:19:59;100072.21;;;-10.08;60.04
75549;BME280;64133;56.002;37.208;2022-12-07T04:25:04;100079.00;;;-10.08;60.15
75549;BME280;64133;56.002;37.208;2022-12-07T04:30:10;100077.67;;;-10.13;60.39
75549;BME280;64133;56.002;37.208;2022-12-07T04:35:13;100079.01;;;-10.07;60.41
75549;BME280;64133;56.002;37.208;2022-12-07T04:40:18;100074.23;;;-10.15;60.46
75549;BME280;64133;56.002;37.208;2022-12-07T04:45:23;100067.80;;;-10.20;60.72
75549;BME280;64133;56.002;37.208;2022-12-07T04:50:27;100073.32;;;-10.20;60.81
75549;BME280;64133;56.002;37.208;2022-12-07T04:55:32;100075.42;;;-10.24;61.02
75549;BME280;64133;56.002;37.208;2022-12-07T05:00:37;100069.98;;;-10.15;60.95
75549;BME280;64133;56.002;37.208;2022-12-07T05:05:42;100089.42;;;-10.26;61.23
75549;BME280;64133;56.002;37.208;2022-12-07T05:10:46;100071.49;;;-10.32;61.64
75549;BME280;64133;56.002;37.208;2022-12-07T05:15:51;100077.97;;;-10.24;61.75
75549;BME280;64133;56.002;37.208;2022-12-07T05:20:56;100079.23;;;-10.24;61.98
75549;BME280;64133;56.002;37.208;2022-12-07T05:26:00;100072.39;;;-10.28;62.04
75549;BME280;64133;56.002;37.208;2022-12-07T05:31:05;100075.44;;;-10.21;62.21
75549;BME280;64133;56.002;37.208;2022-12-07T05:36:10;100078.63;;;-10.05;62.30
75549;BME280;64133;56.002;37.208;2022-12-07T05:41:15;100066.38;;;-9.99;62.18
75549;BME280;64133;56.002;37.208;2022-12-07T05:46:38;100067.27;;;-9.96;62.56
75549;BME280;64133;56.002;37.208;2022-12-07T05:51:43;100063.03;;;-9.95;62.36
75549;BME280;64133;56.002;37.208;2022-12-07T05:56:48;100063.45;;;-9.96;62.66
75549;BME280;64133;56.002;37.208;2022-12-07T06:01:53;100061.44;;;-9.84;62.60
75549;BME280;64133;56.002;37.208;2022-12-07T06:06:57;100069.70;;;-9.68;62.63
75549;BME280;64133;56.002;37.208;2022-12-07T06:12:02;100068.91;;;-9.62;62.68
75549;BME280;64133;56.002;37.208;2022-12-07T06:17:24;100058.84;;;-9.51;62.55
75549;BME280;64133;56.002;37.208;2022-12-07T06:22:29;100055.87;;;-9.49;62.68
75549;BME280;64133;56.002;37.208;2022-12-07T06:27:34;100052.12;;;-9.43;62.62
75549;BME280;64133;56.002;37.208;2022-12-07T06:32:38;100046.71;;;-7.96;61.88
75549;BME280;64133;56.002;37.208;2022-12-07T06:37:43;100031.80;;;-2.55;50.20
75549;BME280;64133;56.002;37.208;2022-12-07T06:42:48;100025.47;;;-1.54;47.13
75549;BME280;64133;56.002;37.208;2022-12-07T06:47:52;100037.84;;;-7.70;55.66
75549;BME280;64133;56.002;37.208;2022-12-07T06:52:57;100040.15;;;-8.38;58.93
75549;BME280;64133;56.002;37.208;2022-12-07T06:58:01;100037.13;;;-8.46;59.88
75549;BME280;64133;56.002;37.208;2022-12-07T07:03:06;100038.77;;;-8.54;60.52
75549;BME280;64133;56.002;37.208;2022-12-07T07:08:11;100033.72;;;-8.48;60.84
75549;BME280;64133;56.002;37.208;2022-12-07T07:13:16;100029.88;;;-8.45;61.08
75549;BME280;64133;56.002;37.208;2022-12-07T07:18:20;100034.61;;;-8.37;61.32
75549;BME280;64133;56.002;37.208;2022-12-07T07:23:25;100037.73;;;-8.04;61.58
75549;BME280;64133;56.002;37.208;2022-12-07T07:28:29;100029.48;;;0.57;45.77
75549;BME280;64133;56.002;37.208;2022-12-07T07:33:34;100024.38;;;1.85;41.85
75549;BME280;64133;56.002;37.208;2022-12-07T07:38:39;100019.27;;;2.86;39.35
75549;BME280;64133;56.002;37.208;2022-12-07T07:43:43;100006.42;;;4.24;37.55
75549;BME280;64133;56.002;37.208;2022-12-07T07:48:48;100006.80;;;4.07;37.41
75549;BME280;64133;56.002;37.208;2022-12-07T07:59:17;99988.85;;;5.11;34.57
75549;BME280;64133;56.002;37.208;2022-12-07T08:04:22;99988.56;;;6.02;33.26
75549;BME280;64133;56.002;37.208;2022-12-07T08:09:27;99981.53;;;7.20;32.81
75549;BME280;64133;56.002;37.208;2022-12-07T08:14:37;99969.44;;;6.33;31.79
75549;BME280;64133;56.002;37.208;2022-12-07T08:19:49;99971.56;;;6.02;32.94
75549;BME280;64133;56.002;37.208;2022-12-07T08:24:54;99973.56;;;5.20;31.94
75549;BME280;64133;56.002;37.208;2022-12-07T08:29:58;99969.49;;;4.97;31.63
75549;BME280;64133;56.002;37.208;2022-12-07T08:35:03;99975.00;;;5.00;31.21
75549;BME280;64133;56.002;37.208;2022-12-07T08:40:11;99953.70;;;4.37;31.07
75549;BME280;64133;56.002;37.208;2022-12-07T08:45:14;99970.28;;;6.09;27.99
75549;BME280;64133;56.002;37.208;2022-12-07T08:50:19;99970.95;;;-0.24;34.41
75549;BME280;64133;56.002;37.208;2022-12-07T08:55:24;99956.05;;;-1.48;39.29
75549;BME280;64133;56.002;37.208;2022-12-07T09:00:28;99951.66;;;-2.92;42.18
75549;BME280;64133;56.002;37.208;2022-12-07T09:05:33;99952.02;;;-3.12;42.66
75549;BME280;64133;56.002;37.208;2022-12-07T09:10:38;99948.05;;;-3.06;42.43
75549;BME280;64133;56.002;37.208;2022-12-07T09:15:41;99937.73;;;-3.30;44.04
75549;BME280;64133;56.002;37.208;2022-12-07T09:20:46;99935.27;;;-3.66;44.39
75549;BME280;64133;56.002;37.208;2022-12-07T09:25:49;99944.02;;;-3.48;44.52
75549;BME280;64133;56.002;37.208;2022-12-07T09:30:54;99932.95;;;-3.55;44.63
75549;BME280;64133;56.002;37.208;2022-12-07T09:35:59;99925.58;;;-3.22;43.66
75549;BME280;64133;56.002;37.208;2022-12-07T09:41:06;99917.22;;;-3.93;44.92
75549;BME280;64133;56.002;37.208;2022-12-07T09:51:25;99903.55;;;-3.97;45.86
75549;BME280;64133;56.002;37.208;2022-12-07T09:56:30;99920.52;;;-4.15;45.41
75549;BME280;64133;56.002;37.208;2022-12-07T10:01:38;99919.57;;;-4.41;46.45
75549;BME280;64133;56.002;37.208;2022-12-07T10:06:43;99920.39;;;-4.74;46.78
75549;BME280;64133;56.002;37.208;2022-12-07T10:12:07;99909.56;;;-4.64;46.66
75549;BME280;64133;56.002;37.208;2022-12-07T10:17:35;99910.28;;;-4.51;46.46
75549;BME280;64133;56.002;37.208;2022-12-07T10:22:41;99903.04;;;-4.94;47.54
75549;BME280;64133;56.002;37.208;2022-12-07T10:27:44;99900.63;;;-4.70;46.85
75549;BME280;64133;56.002;37.208;2022-12-07T10:32:48;99911.50;;;-4.83;46.83
75549;BME280;64133;56.002;37.208;2022-12-07T10:37:53;99896.91;;;-5.22;47.76
75549;BME280;64133;56.002;37.208;2022-12-07T10:43:18;99882.08;;;-5.41;48.67
75549;BME280;64133;56.002;37.208;2022-12-07T10:48:20;99884.59;;;-4.92;47.89
75549;BME280;64133;56.002;37.208;2022-12-07T10:53:35;99880.41;;;-4.99;47.71
75549;BME280;64133;56.002;37.208;2022-12-07T10:58:46;99884.52;;;-5.25;48.04
75549;BME280;64133;56.002;37.208;2022-12-07T11:09:43;99818.73;;;-5.83;48.07
75549;BME280;64133;56.002;37.208;2022-12-07T11:14:48;99863.02;;;-5.62;48.81
75549;BME280;64133;56.002;37.208;2022-12-07T11:19:55;99858.04;;;-5.32;48.32
75549;BME280;64133;56.002;37.208;2022-12-07T11:25:01;99859.27;;;-5.73;49.64
75549;BME280;64133;56.002;37.208;2022-12-07T11:30:13;99854.36;;;-5.99;50.13
75549;BME280;64133;56.002;37.208;2022-12-07T11:35:22;99852.20;;;-5.95;50.33
75549;BME280;64133;56.002;37.208;2022-12-07T11:40:28;99848.52;;;-6.18;50.82
75549;BME280;64133;56.002;37.208;2022-12-07T11:45:32;99840.02;;;-6.27;51.03
75549;BME280;64133;56.002;37.208;2022-12-07T11:50:38;99834.52;;;-6.35;50.97
75549;BME280;64133;56.002;37.208;2022-12-07T11:55:43;99827.80;;;-6.52;51.37
75549;BME280;64133;56.002;37.208;2022-12-07T12:00:47;99824.00;;;-6.62;51.44
75549;BME280;64133;56.002;37.208;2022-12-07T12:05:52;99821.05;;;-6.70;51.93
75549;BME280;64133;56.002;37.208;2022-12-07T12:11:00;99808.73;;;-6.83;52.56
75549;BME280;64133;56.002;37.208;2022-12-07T12:16:22;99805.79;;;-7.01;52.86
75549;BME280;64133;56.002;37.208;2022-12-07T12:21:27;99808.49;;;-7.42;54.10
75549;BME280;64133;56.002;37.208;2022-12-07T12:26:33;99803.80;;;-7.49;54.78
75549;BME280;64133;56.002;37.208;2022-12-07T12:31:40;99804.70;;;-7.68;55.22
75549;BME280;64133;56.002;37.208;2022-12-07T12:36:47;99810.67;;;-7.77;55.91
75549;BME280;64133;56.002;37.208;2022-12-07T12:42:01;99811.52;;;-7.79;55.69
75549;BME280;64133;56.002;37.208;2022-12-07T12:47:43;99815.80;;;-7.88;56.10
75549;BME280;64133;56.002;37.208;2022-12-07T12:58:41;99800.88;;;-8.22;57.76
75549;BME280;64133;56.002;37.208;2022-12-07T13:03:55;99799.59;;;-8.36;58.32
75549;BME280;64133;56.002;37.208;2022-12-07T13:08:58;99797.05;;;-8.48;58.82
75549;BME280;64133;56.002;37.208;2022-12-07T13:19:55;99782.97;;;-8.65;60.20
75549;BME280;64133;56.002;37.208;2022-12-07T13:25:02;99788.45;;;-8.76;60.11
75549;BME280;64133;56.002;37.208;2022-12-07T13:30:13;99785.91;;;-8.77;60.25
75549;BME280;64133;56.002;37.208;2022-12-07T13:35:32;99784.59;;;-8.91;61.61
75549;BME280;64133;56.002;37.208;2022-12-07T13:40:36;99784.12;;;-8.97;61.67
75549;BME280;64133;56.002;37.208;2022-12-07T13:45:42;99771.80;;;-8.99;61.82
75549;BME280;64133;56.002;37.208;2022-12-07T13:50:58;99769.17;;;-9.20;62.75
75549;BME280;64133;56.002;37.208;2022-12-07T13:56:02;99776.86;;;-9.13;62.22
75549;BME280;64133;56.002;37.208;2022-12-07T14:01:07;99778.12;;;-9.16;62.86
75549;BME280;64133;56.002;37.208;2022-12-07T14:06:23;99774.27;;;-9.20;64.03
75549;BME280;64133;56.002;37.208;2022-12-07T14:11:29;99775.98;;;-9.21;63.28
75549;BME280;64133;56.002;37.208;2022-12-07T14:16:34;99774.69;;;-9.25;63.75
75549;BME280;64133;56.002;37.208;2022-12-07T14:21:39;99762.34;;;-9.30;64.42
75549;BME280;64133;56.002;37.208;2022-12-07T14:26:44;99763.59;;;-9.32;64.29
75549;BME280;64133;56.002;37.208;2022-12-07T14:31:48;99766.57;;;-9.35;65.07
75549;BME280;64133;56.002;37.208;2022-12-07T14:36:53;99754.20;;;-9.42;64.98
75549;BME280;64133;56.002;37.208;2022-12-07T14:41:58;99755.88;;;-9.46;64.72
75549;BME280;64133;56.002;37.208;2022-12-07T14:47:03;99756.70;;;-9.51;65.40
75549;BME280;64133;56.002;37.208;2022-12-07T14:52:09;99757.98;;;-9.50;65.64
75549;BME280;64133;56.002;37.208;2022-12-07T14:57:13;99763.08;;;-9.51;65.38
75549;BME280;64133;56.002;37.208;2022-12-07T15:02:21;99764.78;;;-9.50;65.55
75549;BME280;64133;56.002;37.208;2022-12-07T15:07:29;99751.14;;;-9.62;65.49
75549;BME280;64133;56.002;37.208;2022-12-07T15:12:34;99752.41;;;-9.60;65.27
75549;BME280;64133;56.002;37.208;2022-12-07T15:17:39;99745.19;;;-9.59;65.40
75549;BME280;64133;56.002;37.208;2022-12-07T15:22:44;99756.26;;;-9.55;65.30
75549;BME280;64133;56.002;37.208;2022-12-07T15:27:48;99742.61;;;-9.62;65.45
75549;BME280;64133;56.002;37.208;2022-12-07T15:32:53;99728.57;;;-9.68;65.72
75549;BME280;64133;56.002;37.208;2022-12-07T15:37:58;99730.75;;;-9.62;66.14
75549;BME280;64133;56.002;37.208;2022-12-07T15:43:03;99729.45;;;-9.65;66.02
75549;BME280;64133;56.002;37.208;2022-12-07T15:48:08;99726.92;;;-9.60;65.97
75549;BME280;64133;56.002;37.208;2022-12-07T15:53:13;99722.64;;;-9.63;66.62
75549;BME280;64133;56.002;37.208;2022-12-07T15:58:18;99714.18;;;-9.62;66.19
75549;BME280;64133;56.002;37.208;2022-12-07T16:03:22;99724.38;;;-9.62;66.36
75549;BME280;64133;56.002;37.208;2022-12-07T16:08:27;99733.70;;;-9.65;66.76
75549;BME280;64133;56.002;37.208;2022-12-07T16:13:32;99712.01;;;-9.70;67.12
75549;BME280;64133;56.002;37.208;2022-12-07T16:18:38;99715.83;;;-9.70;66.98
75549;BME280;64133;56.002;37.208;2022-12-07T16:23:43;99722.67;;;-9.59;67.13
75549;BME280;64133;56.002;37.208;2022-12-07T16:34:02;99717.55;;;-9.64;67.50
75549;BME280;64133;56.002;37.208;2022-12-07T16:39:08;99707.31;;;-9.72;67.77
75549;BME280;64133;56.002;37.208;2022-12-07T16:44:12;99717.45;;;-9.81;68.28
75549;BME280;64133;56.002;37.208;2022-12-07T16:49:16;99713.23;;;-9.79;68.47
75549;BME280;64133;56.002;37.208;2022-12-07T16:54:21;99705.96;;;-9.84;68.56
75549;BME280;64133;56.002;37.208;2022-12-07T16:59:26;99702.59;;;-9.83;68.86
75549;BME280;64133;56.002;37.208;2022-12-07T17:04:31;99710.63;;;-9.85;69.16
75549;BME280;64133;56.002;37.208;2022-12-07T17:09:36;99703.46;;;-9.76;68.87
75549;BME280;64133;56.002;37.208;2022-12-07T17:14:40;99706.81;;;-9.85;69.36
75549;BME280;64133;56.002;37.208;2022-12-07T17:20:04;99695.34;;;-9.85;69.37
75549;BME280;64133;56.002;37.208;2022-12-07T17:25:09;99687.27;;;-9.84;69.82
75549;BME280;64133;56.002;37.208;2022-12-07T17:30:15;99684.75;;;-9.81;69.83
75549;BME280;64133;56.002;37.208;2022-12-07T17:35:20;99683.48;;;-9.81;69.95
75549;BME280;64133;56.002;37.208;2022-12-07T17:40:25;99684.69;;;-9.94;70.58
75549;BME280;64133;56.002;37.208;2022-12-07T17:45:29;99681.71;;;-9.95;70.76
75549;BME280;64133;56.002;37.208;2022-12-07T17:50:34;99681.77;;;-9.87;71.18
75549;BME280;64133;56.002;37.208;2022-12-07T17:55:56;99677.91;;;-9.90;70.73
75549;BME280;64133;56.002;37.208;2022-12-07T18:01:01;99683.83;;;-9.93;70.85
75549;BME280;64133;56.002;37.208;2022-12-07T18:06:07;99673.27;;;-9.88;71.29
75549;BME280;64133;56.002;37.208;2022-12-07T18:11:12;99677.86;;;-9.98;71.70
75549;BME280;64133;56.002;37.208;2022-12-07T18:16:18;99681.72;;;-9.96;71.67
75549;BME280;64133;56.002;37.208;2022-12-07T18:21:21;99672.77;;;-9.99;71.83
75549;BME280;64133;56.002;37.208;2022-12-07T18:26:28;99665.58;;;-9.97;71.78
75549;BME280;64133;56.002;37.208;2022-12-07T18:31:33;99666.84;;;-9.94;72.13
75549;BME280;64133;56.002;37.208;2022-12-07T18:36:37;99666.45;;;-9.89;71.96
75549;BME280;64133;56.002;37.208;2022-12-07T18:41:41;99662.23;;;-9.88;72.12
75549;BME280;64133;56.002;37.208;2022-12-07T18:46:46;99668.63;;;-9.83;72.04
75549;BME280;64133;56.002;37.208;2022-12-07T18:51:51;99660.92;;;-9.90;72.18
75549;BME280;64133;56.002;37.208;2022-12-07T18:57:00;99656.23;;;-9.93;72.43
75549;BME280;64133;56.002;37.208;2022-12-07T19:02:02;99653.26;;;-9.93;72.65
75549;BME280;64133;56.002;37.208;2022-12-07T19:07:07;99645.22;;;-9.91;72.40
75549;BME280;64133;56.002;37.208;2022-12-07T19:12:12;99642.22;;;-9.95;72.81
75549;BME280;64133;56.002;37.208;2022-12-07T19:17:17;99640.58;;;-9.88;72.74
75549;BME280;64133;56.002;37.208;2022-12-07T19:22:22;99629.08;;;-9.91;72.71
75549;BME280;64133;56.002;37.208;2022-12-07T19:27:26;99630.75;;;-9.93;72.71
75549;BME280;64133;56.002;37.208;2022-12-07T19:32:31;99618.91;;;-9.88;72.85
75549;BME280;64133;56.002;37.208;2022-12-07T19:37:35;99627.42;;;-9.83;73.12
75549;BME280;64133;56.002;37.208;2022-12-07T19:42:40;99618.53;;;-9.72;72.69
75549;BME280;64133;56.002;37.208;2022-12-07T19:47:45;99622.77;;;-9.79;73.11
75549;BME280;64133;56.002;37.208;2022-12-07T19:52:49;99624.89;;;-9.78;73.19
75549;BME280;64133;56.002;37.208;2022-12-07T19:57:54;99608.34;;;-9.72;73.14
75549;BME280;64133;56.002;37.208;2022-12-07T20:02:59;99611.30;;;-9.77;73.15
75549;BME280;64133;56.002;37.208;2022-12-07T20:08:04;99604.08;;;-9.76;73.17
75549;BME280;64133;56.002;37.208;2022-12-07T20:13:09;99618.11;;;-9.73;73.21
75549;BME280;64133;56.002;37.208;2022-12-07T20:18:32;99635.53;;;-9.67;73.18
75549;BME280;64133;56.002;37.208;2022-12-07T20:23:36;99617.28;;;-9.69;73.16
75549;BME280;64133;56.002;37.208;2022-12-07T20:28:41;99620.69;;;-9.70;73.35
75549;BME280;64133;56.002;37.208;2022-12-07T20:33:46;99617.25;;;-9.71;73.33
75549;BME280;64133;56.002;37.208;2022-12-07T20:38:51;99607.50;;;-9.74;73.58
75549;BME280;64133;56.002;37.208;2022-12-07T20:43:55;99601.98;;;-9.69;73.45
75549;BME280;64133;56.002;37.208;2022-12-07T20:49:00;99593.92;;;-9.70;73.47
75549;BME280;64133;56.002;37.208;2022-12-07T20:54:05;99590.49;;;-9.78;73.50
75549;BME280;64133;56.002;37.208;2022-12-07T20:59:11;99604.09;;;-9.79;74.00
75549;BME280;64133;56.002;37.208;2022-12-07T21:04:15;99576.48;;;-9.74;74.22
75549;BME280;64133;56.002;37.208;2022-12-07T21:09:19;99571.38;;;-9.71;73.83
75549;BME280;64133;56.002;37.208;2022-12-07T21:14:25;99582.00;;;-9.71;73.65
75549;BME280;64133;56.002;37.208;2022-12-07T21:19:30;99588.38;;;-9.71;73.70
75549;BME280;64133;56.002;37.208;2022-12-07T21:24:34;99568.01;;;-9.70;73.75
75549;BME280;64133;56.002;37.208;2022-12-07T21:29:39;99564.61;;;-9.64;73.75
75549;BME280;64133;56.002;37.208;2022-12-07T21:34:44;99545.48;;;-9.63;73.65
75549;BME280;64133;56.002;37.208;2022-12-07T21:39:48;99570.16;;;-9.62;73.51
75549;BME280;64133;56.002;37.208;2022-12-07T21:44:53;99562.95;;;-9.51;73.53
75549;BME280;64133;56.002;37.208;2022-12-07T21:49:58;99558.27;;;-9.50;73.40
75549;BME280;64133;56.002;37.208;2022-12-07T21:55:03;99565.50;;;-9.51;73.33
75549;BME280;64133;56.002;37.208;2022-12-07T22:00:09;99562.52;;;-9.49;73.39
75549;BME280;64133;56.002;37.208;2022-12-07T22:05:14;99557.44;;;-9.48;73.35
75549;BME280;64133;56.002;37.208;2022-12-07T22:10:19;99547.64;;;-9.50;73.58
75549;BME280;64133;56.002;37.208;2022-12-07T22:15:31;99542.98;;;-9.52;73.64
75549;BME280;64133;56.002;37.208;2022-12-07T22:20:35;99554.04;;;-9.48;73.75
75549;BME280;64133;56.002;37.208;2022-12-07T22:25:40;99554.47;;;-9.49;73.78
75549;BME280;64133;56.002;37.208;2022-12-07T22:30:45;99562.93;;;-9.54;74.05
75549;BME280;64133;56.002;37.208;2022-12-07T22:35:53;99581.23;;;-9.47;73.94
75549;BME280;64133;56.002;37.208;2022-12-07T22:40:57;99558.69;;;-9.49;74.27
75549;BME280;64133;56.002;37.208;2022-12-07T22:46:02;99555.29;;;-9.50;74.42
75549;BME280;64133;56.002;37.208;2022-12-07T22:51:07;99555.30;;;-9.53;74.63
75549;BME280;64133;56.002;37.208;2022-12-07T22:56:11;99534.06;;;-9.47;74.76
75549;BME280;64133;56.002;37.208;2022-12-07T23:01:17;99532.78;;;-9.37;74.48
75549;BME280;64133;56.002;37.208;2022-12-07T23:06:21;99535.34;;;-9.43;74.84
75549;BME280;64133;56.002;37.208;2022-12-07T23:11:26;99548.94;;;-9.38;75.10
75549;BME280;64133;56.002;37.208;2022-12-07T23:16:47;99521.73;;;-9.37;75.64
75549;BME280;64133;56.002;37.208;2022-12-07T23:21:52;99531.53;;;-9.30;75.54
75549;BME280;64133;56.002;37.208;2022-12-07T23:26:57;99517.92;;;-9.25;75.58
75549;BME280;64133;56.002;37.208;2022-12-07T23:32:01;99522.61;;;-9.21;75.90
75549;BME280;64133;56.002;37.208;2022-12-07T23:37:06;99510.69;;;-9.15;76.10
75549;BME280;64133;56.002;37.208;2022-12-07T23:42:11;99501.75;;;-9.15;76.16
75549;BME280;64133;56.002;37.208;2022-12-07T23:47:15;99494.55;;;-9.09;76.68
75549;BME280;64133;56.002;37.208;2022-12-07T23:52:20;99518.76;;;-9.06;76.60
75549;BME280;64133;56.002;37.208;2022-12-07T23:57:24;99496.64;;;-8.98;76.71
